sensor_id;sensor_type;location;lat;lon;timestamp;P1;durP1;ratioP1;P2;durP2;ratioP2
4833;SDS011;12895;51.064;7.028;2023-06-10T00:02:07;11.17;;;9.87;;
4833;SDS011;12895;51.064;7.028;2023-06-10T00:04:55;10.10;;;9.40;;
4833;SDS011;12895;51.064;7.028;2023-06-10T00:07:41;10.50;;;9.70;;
4833;SDS011;12895;51.064;7.028;2023-06-10T00:10:26;10.57;;;9.87;;
4833;SDS011;12895;51.064;7.028;2023-06-10T00:13:12;10.33;;;9.63;;
4833;SDS011;12895;51.064;7.028;2023-06-10T00:15:58;11.20;;;10.50;;
4833;SDS011;12895;51.064;7.028;2023-06-10T00:18:43;10.80;;;10.00;;
4833;SDS011;12895;51.064;7.028;2023-06-10T00:21:29;9.97;;;9.27;;
4833;SDS011;12895;51.064;7.028;2023-06-10T00:24:21;10.50;;;9.80;;
4833;SDS011;12895;51.064;7.028;2023-06-10T00:27:06;10.70;;;9.90;;
4833;SDS011;12895;51.064;7.028;2023-06-10T00:29:53;11.13;;;10.13;;
4833;SDS011;12895;51.064;7.028;2023-06-10T00:32:38;10.00;;;9.30;;
4833;SDS011;12895;51.064;7.028;2023-06-10T00:35:23;10.27;;;9.37;;
4833;SDS011;12895;51.064;7.028;2023-06-10T00:38:10;10.23;;;9.60;;
4833;SDS011;12895;51.064;7.028;2023-06-10T00:40:55;10.77;;;9.70;;
4833;SDS011;12895;51.064;7.028;2023-06-10T00:43:42;9.70;;;9.10;;
4833;SDS011;12895;51.064;7.028;2023-06-10T00:46:29;10.80;;;10.00;;
4833;SDS011;12895;51.064;7.028;2023-06-10T00:49:15;10.50;;;9.70;;
4833;SDS011;12895;51.064;7.028;2023-06-10T00:52:01;10.67;;;9.90;;
4833;SDS011;12895;51.064;7.028;2023-06-10T00:54:49;10.63;;;9.93;;
4833;SDS011;12895;51.064;7.028;2023-06-10T00:57:36;11.10;;;10.20;;
4833;SDS011;12895;51.064;7.028;2023-06-10T01:00:22;11.27;;;10.43;;
4833;SDS011;12895;51.064;7.028;2023-06-10T01:03:09;11.30;;;10.50;;
4833;SDS011;12895;51.064;7.028;2023-06-10T01:05:57;10.60;;;9.90;;
4833;SDS011;12895;51.064;7.028;2023-06-10T01:08:51;11.33;;;10.40;;
4833;SDS011;12895;51.064;7.028;2023-06-10T01:11:42;10.77;;;9.97;;
4833;SDS011;12895;51.064;7.028;2023-06-10T01:14:32;11.70;;;10.60;;
4833;SDS011;12895;51.064;7.028;2023-06-10T01:17:17;11.17;;;10.37;;
4833;SDS011;12895;51.064;7.028;2023-06-10T01:20:05;10.77;;;9.87;;
4833;SDS011;12895;51.064;7.028;2023-06-10T01:22:57;10.60;;;9.80;;
4833;SDS011;12895;51.064;7.028;2023-06-10T01:25:44;10.57;;;9.77;;
4833;SDS011;12895;51.064;7.028;2023-06-10T01:28:33;10.57;;;9.77;;
4833;SDS011;12895;51.064;7.028;2023-06-10T01:31:24;11.67;;;10.80;;
4833;SDS011;12895;51.064;7.028;2023-06-10T01:34:18;10.80;;;10.00;;
4833;SDS011;12895;51.064;7.028;2023-06-10T01:37:06;10.10;;;9.40;;
4833;SDS011;12895;51.064;7.028;2023-06-10T01:39:57;10.77;;;10.03;;
4833;SDS011;12895;51.064;7.028;2023-06-10T01:42:44;11.10;;;10.10;;
4833;SDS011;12895;51.064;7.028;2023-06-10T01:45:30;10.50;;;9.80;;
4833;SDS011;12895;51.064;7.028;2023-06-10T01:48:16;10.77;;;9.97;;
4833;SDS011;12895;51.064;7.028;2023-06-10T01:51:02;10.70;;;9.90;;
4833;SDS011;12895;51.064;7.028;2023-06-10T01:53:47;11.30;;;10.50;;
4833;SDS011;12895;51.064;7.028;2023-06-10T01:56:35;11.27;;;10.47;;
4833;SDS011;12895;51.064;7.028;2023-06-10T01:59:20;11.57;;;10.77;;
4833;SDS011;12895;51.064;7.028;2023-06-10T02:02:05;10.63;;;9.83;;
4833;SDS011;12895;51.064;7.028;2023-06-10T02:04:51;12.80;;;11.70;;
4833;SDS011;12895;51.064;7.028;2023-06-10T02:07:38;11.97;;;10.97;;
4833;SDS011;12895;51.064;7.028;2023-06-10T02:10:24;12.03;;;11.13;;
4833;SDS011;12895;51.064;7.028;2023-06-10T02:13:10;12.73;;;11.80;;
4833;SDS011;12895;51.064;7.028;2023-06-10T02:15:56;12.07;;;10.97;;
4833;SDS011;12895;51.064;7.028;2023-06-10T02:18:46;11.10;;;10.40;;
4833;SDS011;12895;51.064;7.028;2023-06-10T02:21:32;11.70;;;10.90;;
4833;SDS011;12895;51.064;7.028;2023-06-10T02:24:18;11.93;;;11.03;;
4833;SDS011;12895;51.064;7.028;2023-06-10T02:27:05;12.33;;;11.43;;
4833;SDS011;12895;51.064;7.028;2023-06-10T02:29:53;12.40;;;11.40;;
4833;SDS011;12895;51.064;7.028;2023-06-10T02:32:39;13.03;;;12.03;;
4833;SDS011;12895;51.064;7.028;2023-06-10T02:35:27;12.13;;;11.23;;
4833;SDS011;12895;51.064;7.028;2023-06-10T02:38:13;11.67;;;10.87;;
4833;SDS011;12895;51.064;7.028;2023-06-10T02:40:59;12.40;;;11.60;;
4833;SDS011;12895;51.064;7.028;2023-06-10T02:43:44;12.27;;;11.27;;
4833;SDS011;12895;51.064;7.028;2023-06-10T02:46:31;12.77;;;11.83;;
4833;SDS011;12895;51.064;7.028;2023-06-10T02:49:16;12.23;;;11.27;;
4833;SDS011;12895;51.064;7.028;2023-06-10T02:52:04;13.30;;;12.47;;
4833;SDS011;12895;51.064;7.028;2023-06-10T02:54:52;13.27;;;12.07;;
4833;SDS011;12895;51.064;7.028;2023-06-10T02:57:39;13.00;;;12.10;;
4833;SDS011;12895;51.064;7.028;2023-06-10T03:00:26;12.67;;;11.77;;
4833;SDS011;12895;51.064;7.028;2023-06-10T03:03:13;13.10;;;12.10;;
4833;SDS011;12895;51.064;7.028;2023-06-10T03:06:10;11.87;;;10.97;;
4833;SDS011;12895;51.064;7.028;2023-06-10T03:08:56;12.40;;;11.50;;
4833;SDS011;12895;51.064;7.028;2023-06-10T03:11:42;12.67;;;11.77;;
4833;SDS011;12895;51.064;7.028;2023-06-10T03:14:27;13.07;;;12.17;;
4833;SDS011;12895;51.064;7.028;2023-06-10T03:17:13;13.50;;;12.40;;
4833;SDS011;12895;51.064;7.028;2023-06-10T03:20:02;12.93;;;11.90;;
4833;SDS011;12895;51.064;7.028;2023-06-10T03:22:50;12.13;;;11.33;;
4833;SDS011;12895;51.064;7.028;2023-06-10T03:25:35;12.33;;;11.43;;
4833;SDS011;12895;51.064;7.028;2023-06-10T03:28:21;13.07;;;12.07;;
4833;SDS011;12895;51.064;7.028;2023-06-10T03:31:06;12.77;;;11.67;;
4833;SDS011;12895;51.064;7.028;2023-06-10T03:33:52;14.57;;;13.47;;
4833;SDS011;12895;51.064;7.028;2023-06-10T03:36:38;12.60;;;11.70;;
4833;SDS011;12895;51.064;7.028;2023-06-10T03:39:27;12.27;;;11.40;;
4833;SDS011;12895;51.064;7.028;2023-06-10T03:42:15;13.37;;;12.40;;
4833;SDS011;12895;51.064;7.028;2023-06-10T03:45:01;12.67;;;11.80;;
4833;SDS011;12895;51.064;7.028;2023-06-10T03:47:49;13.43;;;12.40;;
4833;SDS011;12895;51.064;7.028;2023-06-10T03:50:39;12.80;;;11.90;;
4833;SDS011;12895;51.064;7.028;2023-06-10T03:53:26;13.93;;;12.73;;
4833;SDS011;12895;51.064;7.028;2023-06-10T03:56:11;14.00;;;13.00;;
4833;SDS011;12895;51.064;7.028;2023-06-10T03:58:58;13.50;;;12.60;;
4833;SDS011;12895;51.064;7.028;2023-06-10T04:01:45;12.90;;;11.90;;
4833;SDS011;12895;51.064;7.028;2023-06-10T04:04:30;12.90;;;11.87;;
4833;SDS011;12895;51.064;7.028;2023-06-10T04:07:16;12.43;;;11.40;;
4833;SDS011;12895;51.064;7.028;2023-06-10T04:10:04;12.70;;;11.80;;
4833;SDS011;12895;51.064;7.028;2023-06-10T04:12:50;12.50;;;11.60;;
4833;SDS011;12895;51.064;7.028;2023-06-10T04:15:37;12.97;;;11.97;;
4833;SDS011;12895;51.064;7.028;2023-06-10T04:18:26;13.23;;;12.10;;
4833;SDS011;12895;51.064;7.028;2023-06-10T04:21:14;12.70;;;11.77;;
4833;SDS011;12895;51.064;7.028;2023-06-10T04:24:00;13.50;;;12.20;;
4833;SDS011;12895;51.064;7.028;2023-06-10T04:26:47;12.57;;;11.57;;
4833;SDS011;12895;51.064;7.028;2023-06-10T04:29:32;13.57;;;12.47;;
4833;SDS011;12895;51.064;7.028;2023-06-10T04:32:18;13.37;;;12.17;;
4833;SDS011;12895;51.064;7.028;2023-06-10T04:35:04;13.77;;;12.10;;
4833;SDS011;12895;51.064;7.028;2023-06-10T04:37:50;12.47;;;11.53;;
4833;SDS011;12895;51.064;7.028;2023-06-10T04:40:35;14.10;;;13.10;;
4833;SDS011;12895;51.064;7.028;2023-06-10T04:43:23;13.10;;;11.90;;
4833;SDS011;12895;51.064;7.028;2023-06-10T04:46:08;13.23;;;12.20;;
4833;SDS011;12895;51.064;7.028;2023-06-10T04:48:55;13.20;;;12.10;;
4833;SDS011;12895;51.064;7.028;2023-06-10T04:51:40;13.00;;;12.10;;
4833;SDS011;12895;51.064;7.028;2023-06-10T04:54:26;13.30;;;12.10;;
4833;SDS011;12895;51.064;7.028;2023-06-10T04:57:12;13.07;;;11.93;;
4833;SDS011;12895;51.064;7.028;2023-06-10T04:59:58;14.23;;;13.23;;
4833;SDS011;12895;51.064;7.028;2023-06-10T05:02:43;12.87;;;11.87;;
4833;SDS011;12895;51.064;7.028;2023-06-10T05:05:33;12.50;;;11.60;;
4833;SDS011;12895;51.064;7.028;2023-06-10T05:08:18;13.40;;;12.20;;
4833;SDS011;12895;51.064;7.028;2023-06-10T05:11:04;12.67;;;11.77;;
4833;SDS011;12895;51.064;7.028;2023-06-10T05:13:50;14.13;;;12.90;;
4833;SDS011;12895;51.064;7.028;2023-06-10T05:16:39;12.27;;;11.37;;
4833;SDS011;12895;51.064;7.028;2023-06-10T05:19:25;12.27;;;11.23;;
4833;SDS011;12895;51.064;7.028;2023-06-10T05:22:11;12.50;;;11.60;;
4833;SDS011;12895;51.064;7.028;2023-06-10T05:24:57;11.83;;;11.03;;
4833;SDS011;12895;51.064;7.028;2023-06-10T05:27:42;11.63;;;10.80;;
4833;SDS011;12895;51.064;7.028;2023-06-10T05:30:31;11.27;;;10.27;;
4833;SDS011;12895;51.064;7.028;2023-06-10T05:33:17;11.23;;;10.20;;
4833;SDS011;12895;51.064;7.028;2023-06-10T05:36:03;9.90;;;9.20;;
4833;SDS011;12895;51.064;7.028;2023-06-10T05:38:49;9.90;;;9.10;;
4833;SDS011;12895;51.064;7.028;2023-06-10T05:41:34;10.67;;;9.87;;
4833;SDS011;12895;51.064;7.028;2023-06-10T05:44:19;10.43;;;9.67;;
4833;SDS011;12895;51.064;7.028;2023-06-10T05:47:05;10.27;;;9.47;;
4833;SDS011;12895;51.064;7.028;2023-06-10T05:49:52;11.00;;;9.87;;
4833;SDS011;12895;51.064;7.028;2023-06-10T05:52:37;9.77;;;9.17;;
4833;SDS011;12895;51.064;7.028;2023-06-10T05:55:24;10.00;;;9.23;;
4833;SDS011;12895;51.064;7.028;2023-06-10T05:58:09;10.50;;;9.70;;
4833;SDS011;12895;51.064;7.028;2023-06-10T06:00:56;10.80;;;9.47;;
4833;SDS011;12895;51.064;7.028;2023-06-10T06:03:41;9.50;;;8.70;;
4833;SDS011;12895;51.064;7.028;2023-06-10T06:06:28;9.20;;;8.50;;
4833;SDS011;12895;51.064;7.028;2023-06-10T06:09:13;9.43;;;8.77;;
4833;SDS011;12895;51.064;7.028;2023-06-10T06:11:58;11.07;;;9.87;;
4833;SDS011;12895;51.064;7.028;2023-06-10T06:14:43;10.33;;;9.53;;
4833;SDS011;12895;51.064;7.028;2023-06-10T06:17:29;9.70;;;8.90;;
4833;SDS011;12895;51.064;7.028;2023-06-10T06:20:14;10.50;;;9.70;;
4833;SDS011;12895;51.064;7.028;2023-06-10T06:23:01;9.90;;;9.20;;
4833;SDS011;12895;51.064;7.028;2023-06-10T06:25:46;9.43;;;8.63;;
4833;SDS011;12895;51.064;7.028;2023-06-10T06:28:31;10.10;;;9.33;;
4833;SDS011;12895;51.064;7.028;2023-06-10T06:31:16;9.97;;;9.27;;
4833;SDS011;12895;51.064;7.028;2023-06-10T06:34:02;10.17;;;9.47;;
4833;SDS011;12895;51.064;7.028;2023-06-10T06:36:47;10.90;;;10.10;;
4833;SDS011;12895;51.064;7.028;2023-06-10T06:39:34;9.37;;;8.60;;
4833;SDS011;12895;51.064;7.028;2023-06-10T06:42:19;9.10;;;8.40;;
4833;SDS011;12895;51.064;7.028;2023-06-10T06:45:15;9.30;;;8.60;;
4833;SDS011;12895;51.064;7.028;2023-06-10T06:48:00;10.27;;;9.17;;
4833;SDS011;12895;51.064;7.028;2023-06-10T06:50:49;9.43;;;8.73;;
4833;SDS011;12895;51.064;7.028;2023-06-10T06:53:34;9.90;;;8.30;;
4833;SDS011;12895;51.064;7.028;2023-06-10T06:56:22;9.60;;;8.90;;
4833;SDS011;12895;51.064;7.028;2023-06-10T06:59:07;9.37;;;8.53;;
4833;SDS011;12895;51.064;7.028;2023-06-10T07:01:53;10.03;;;9.13;;
4833;SDS011;12895;51.064;7.028;2023-06-10T07:04:40;10.03;;;9.30;;
4833;SDS011;12895;51.064;7.028;2023-06-10T07:07:26;9.47;;;8.77;;
4833;SDS011;12895;51.064;7.028;2023-06-10T07:10:11;9.00;;;8.30;;
4833;SDS011;12895;51.064;7.028;2023-06-10T07:12:58;9.67;;;8.67;;
4833;SDS011;12895;51.064;7.028;2023-06-10T07:15:43;9.07;;;8.33;;
4833;SDS011;12895;51.064;7.028;2023-06-10T07:18:28;9.67;;;8.87;;
4833;SDS011;12895;51.064;7.028;2023-06-10T07:21:13;9.70;;;8.90;;
4833;SDS011;12895;51.064;7.028;2023-06-10T07:23:59;8.50;;;7.90;;
4833;SDS011;12895;51.064;7.028;2023-06-10T07:26:44;8.80;;;8.20;;
4833;SDS011;12895;51.064;7.028;2023-06-10T07:29:31;11.67;;;10.87;;
4833;SDS011;12895;51.064;7.028;2023-06-10T07:32:16;9.90;;;9.10;;
4833;SDS011;12895;51.064;7.028;2023-06-10T07:35:06;10.43;;;9.57;;
4833;SDS011;12895;51.064;7.028;2023-06-10T07:37:53;9.90;;;8.80;;
4833;SDS011;12895;51.064;7.028;2023-06-10T07:40:38;9.60;;;9.00;;
4833;SDS011;12895;51.064;7.028;2023-06-10T07:43:23;9.57;;;8.67;;
4833;SDS011;12895;51.064;7.028;2023-06-10T07:46:10;9.83;;;9.10;;
4833;SDS011;12895;51.064;7.028;2023-06-10T07:48:55;9.17;;;8.57;;
4833;SDS011;12895;51.064;7.028;2023-06-10T07:51:40;9.40;;;8.80;;
4833;SDS011;12895;51.064;7.028;2023-06-10T07:54:25;9.50;;;8.80;;
4833;SDS011;12895;51.064;7.028;2023-06-10T07:57:11;9.20;;;8.40;;
4833;SDS011;12895;51.064;7.028;2023-06-10T07:59:56;8.97;;;8.30;;
4833;SDS011;12895;51.064;7.028;2023-06-10T08:02:46;8.97;;;8.27;;
4833;SDS011;12895;51.064;7.028;2023-06-10T08:05:31;9.17;;;8.57;;
4833;SDS011;12895;51.064;7.028;2023-06-10T08:08:16;8.50;;;7.80;;
4833;SDS011;12895;51.064;7.028;2023-06-10T08:11:01;9.77;;;9.10;;
4833;SDS011;12895;51.064;7.028;2023-06-10T08:13:47;9.17;;;8.47;;
4833;SDS011;12895;51.064;7.028;2023-06-10T08:16:32;10.03;;;9.20;;
4833;SDS011;12895;51.064;7.028;2023-06-10T08:19:18;10.47;;;9.27;;
4833;SDS011;12895;51.064;7.028;2023-06-10T08:22:04;10.07;;;9.30;;
4833;SDS011;12895;51.064;7.028;2023-06-10T08:24:49;9.80;;;9.10;;
4833;SDS011;12895;51.064;7.028;2023-06-10T08:27:35;9.57;;;8.70;;
4833;SDS011;12895;51.064;7.028;2023-06-10T08:30:21;8.80;;;8.20;;
4833;SDS011;12895;51.064;7.028;2023-06-10T08:33:07;10.40;;;9.50;;
4833;SDS011;12895;51.064;7.028;2023-06-10T08:35:53;9.03;;;8.43;;
4833;SDS011;12895;51.064;7.028;2023-06-10T08:38:38;9.87;;;9.17;;
4833;SDS011;12895;51.064;7.028;2023-06-10T08:41:23;9.50;;;8.70;;
4833;SDS011;12895;51.064;7.028;2023-06-10T08:44:16;10.17;;;9.37;;
4833;SDS011;12895;51.064;7.028;2023-06-10T08:47:08;9.77;;;9.07;;
4833;SDS011;12895;51.064;7.028;2023-06-10T08:50:00;10.77;;;9.90;;
4833;SDS011;12895;51.064;7.028;2023-06-10T08:52:54;10.63;;;9.57;;
4833;SDS011;12895;51.064;7.028;2023-06-10T08:55:42;9.73;;;9.00;;
4833;SDS011;12895;51.064;7.028;2023-06-10T08:58:31;9.83;;;9.03;;
4833;SDS011;12895;51.064;7.028;2023-06-10T09:01:19;9.67;;;8.97;;
4833;SDS011;12895;51.064;7.028;2023-06-10T09:04:05;10.93;;;10.10;;
4833;SDS011;12895;51.064;7.028;2023-06-10T09:06:51;11.50;;;10.60;;
4833;SDS011;12895;51.064;7.028;2023-06-10T09:09:43;10.23;;;9.23;;
4833;SDS011;12895;51.064;7.028;2023-06-10T09:12:29;10.00;;;9.20;;
4833;SDS011;12895;51.064;7.028;2023-06-10T09:15:14;10.47;;;9.80;;
4833;SDS011;12895;51.064;7.028;2023-06-10T09:18:01;10.67;;;9.70;;
4833;SDS011;12895;51.064;7.028;2023-06-10T09:20:46;10.47;;;9.67;;
4833;SDS011;12895;51.064;7.028;2023-06-10T09:23:31;10.20;;;9.47;;
4833;SDS011;12895;51.064;7.028;2023-06-10T09:26:19;10.10;;;9.50;;
4833;SDS011;12895;51.064;7.028;2023-06-10T09:29:05;9.83;;;9.23;;
4833;SDS011;12895;51.064;7.028;2023-06-10T09:31:52;11.50;;;10.57;;
4833;SDS011;12895;51.064;7.028;2023-06-10T09:34:37;11.00;;;10.00;;
4833;SDS011;12895;51.064;7.028;2023-06-10T09:37:23;10.93;;;10.13;;
4833;SDS011;12895;51.064;7.028;2023-06-10T09:40:09;10.73;;;9.93;;
4833;SDS011;12895;51.064;7.028;2023-06-10T09:42:58;9.60;;;9.00;;
4833;SDS011;12895;51.064;7.028;2023-06-10T09:45:47;10.13;;;9.33;;
4833;SDS011;12895;51.064;7.028;2023-06-10T09:48:34;10.33;;;9.73;;
4833;SDS011;12895;51.064;7.028;2023-06-10T09:51:20;11.30;;;10.40;;
4833;SDS011;12895;51.064;7.028;2023-06-10T09:54:06;11.57;;;10.67;;
4833;SDS011;12895;51.064;7.028;2023-06-10T09:56:52;11.37;;;10.37;;
4833;SDS011;12895;51.064;7.028;2023-06-10T09:59:38;10.90;;;10.00;;
4833;SDS011;12895;51.064;7.028;2023-06-10T10:02:23;9.30;;;8.60;;
4833;SDS011;12895;51.064;7.028;2023-06-10T10:05:09;11.90;;;11.00;;
4833;SDS011;12895;51.064;7.028;2023-06-10T10:07:55;10.10;;;9.37;;
4833;SDS011;12895;51.064;7.028;2023-06-10T10:10:41;9.43;;;8.73;;
4833;SDS011;12895;51.064;7.028;2023-06-10T10:13:26;9.60;;;8.90;;
4833;SDS011;12895;51.064;7.028;2023-06-10T10:16:16;9.67;;;8.97;;
4833;SDS011;12895;51.064;7.028;2023-06-10T10:19:04;9.17;;;8.47;;
4833;SDS011;12895;51.064;7.028;2023-06-10T10:21:53;11.50;;;8.33;;
4833;SDS011;12895;51.064;7.028;2023-06-10T10:24:42;10.17;;;9.47;;
4833;SDS011;12895;51.064;7.028;2023-06-10T10:27:35;9.80;;;9.10;;
4833;SDS011;12895;51.064;7.028;2023-06-10T10:30:24;9.53;;;8.83;;
4833;SDS011;12895;51.064;7.028;2023-06-10T10:33:16;9.27;;;8.53;;
4833;SDS011;12895;51.064;7.028;2023-06-10T10:36:03;9.90;;;9.20;;
4833;SDS011;12895;51.064;7.028;2023-06-10T10:38:49;9.97;;;9.07;;
4833;SDS011;12895;51.064;7.028;2023-06-10T10:41:36;9.53;;;8.77;;
4833;SDS011;12895;51.064;7.028;2023-06-10T10:44:22;13.20;;;9.40;;
4833;SDS011;12895;51.064;7.028;2023-06-10T10:47:08;10.43;;;9.73;;
4833;SDS011;12895;51.064;7.028;2023-06-10T10:49:56;9.97;;;9.27;;
4833;SDS011;12895;51.064;7.028;2023-06-10T10:52:47;8.80;;;8.20;;
4833;SDS011;12895;51.064;7.028;2023-06-10T10:55:37;9.53;;;8.77;;
4833;SDS011;12895;51.064;7.028;2023-06-10T10:58:24;9.87;;;9.07;;
4833;SDS011;12895;51.064;7.028;2023-06-10T11:01:10;9.00;;;8.40;;
4833;SDS011;12895;51.064;7.028;2023-06-10T11:03:56;8.93;;;8.33;;
4833;SDS011;12895;51.064;7.028;2023-06-10T11:06:53;10.00;;;9.30;;
4833;SDS011;12895;51.064;7.028;2023-06-10T11:09:39;8.27;;;7.70;;
4833;SDS011;12895;51.064;7.028;2023-06-10T11:12:52;8.43;;;7.80;;
4833;SDS011;12895;51.064;7.028;2023-06-10T11:15:38;9.67;;;8.93;;
4833;SDS011;12895;51.064;7.028;2023-06-10T11:18:25;8.97;;;8.40;;
4833;SDS011;12895;51.064;7.028;2023-06-10T11:21:10;10.43;;;9.70;;
4833;SDS011;12895;51.064;7.028;2023-06-10T11:26:44;9.23;;;8.53;;
4833;SDS011;12895;51.064;7.028;2023-06-10T11:29:29;9.97;;;9.20;;
4833;SDS011;12895;51.064;7.028;2023-06-10T11:32:15;9.70;;;9.10;;
4833;SDS011;12895;51.064;7.028;2023-06-10T11:35:02;9.43;;;8.53;;
4833;SDS011;12895;51.064;7.028;2023-06-10T11:37:48;9.60;;;8.90;;
4833;SDS011;12895;51.064;7.028;2023-06-10T11:40:34;8.87;;;8.20;;
4833;SDS011;12895;51.064;7.028;2023-06-10T11:43:21;8.90;;;8.30;;
4833;SDS011;12895;51.064;7.028;2023-06-10T11:46:07;9.57;;;8.77;;
4833;SDS011;12895;51.064;7.028;2023-06-10T11:48:53;9.30;;;8.70;;
4833;SDS011;12895;51.064;7.028;2023-06-10T11:51:40;8.47;;;7.97;;
4833;SDS011;12895;51.064;7.028;2023-06-10T11:54:32;8.80;;;8.10;;
4833;SDS011;12895;51.064;7.028;2023-06-10T11:57:17;8.00;;;7.33;;
4833;SDS011;12895;51.064;7.028;2023-06-10T12:00:05;9.20;;;8.60;;
4833;SDS011;12895;51.064;7.028;2023-06-10T12:02:56;9.33;;;8.43;;
4833;SDS011;12895;51.064;7.028;2023-06-10T12:05:53;9.03;;;8.37;;
4833;SDS011;12895;51.064;7.028;2023-06-10T12:08:43;8.57;;;7.97;;
4833;SDS011;12895;51.064;7.028;2023-06-10T12:11:28;9.67;;;8.87;;
4833;SDS011;12895;51.064;7.028;2023-06-10T12:14:14;8.20;;;7.70;;
4833;SDS011;12895;51.064;7.028;2023-06-10T12:17:00;8.87;;;8.23;;
4833;SDS011;12895;51.064;7.028;2023-06-10T12:19:46;9.23;;;8.30;;
4833;SDS011;12895;51.064;7.028;2023-06-10T12:22:35;8.73;;;8.10;;
4833;SDS011;12895;51.064;7.028;2023-06-10T12:25:24;9.47;;;8.33;;
4833;SDS011;12895;51.064;7.028;2023-06-10T12:28:10;9.00;;;8.40;;
4833;SDS011;12895;51.064;7.028;2023-06-10T12:31:06;9.50;;;8.80;;
4833;SDS011;12895;51.064;7.028;2023-06-10T12:34:03;9.20;;;8.60;;
4833;SDS011;12895;51.064;7.028;2023-06-10T12:36:52;8.83;;;8.33;;
4833;SDS011;12895;51.064;7.028;2023-06-10T12:39:38;9.93;;;9.13;;
4833;SDS011;12895;51.064;7.028;2023-06-10T12:42:23;11.50;;;9.27;;
4833;SDS011;12895;51.064;7.028;2023-06-10T12:45:10;10.33;;;9.53;;
4833;SDS011;12895;51.064;7.028;2023-06-10T12:48:06;9.27;;;8.57;;
4833;SDS011;12895;51.064;7.028;2023-06-10T12:50:54;9.33;;;8.63;;
4833;SDS011;12895;51.064;7.028;2023-06-10T12:53:41;10.37;;;8.50;;
4833;SDS011;12895;51.064;7.028;2023-06-10T12:56:27;9.10;;;8.30;;
4833;SDS011;12895;51.064;7.028;2023-06-10T12:59:12;10.00;;;9.13;;
4833;SDS011;12895;51.064;7.028;2023-06-10T13:01:58;8.93;;;8.27;;
4833;SDS011;12895;51.064;7.028;2023-06-10T13:04:44;8.87;;;8.37;;
4833;SDS011;12895;51.064;7.028;2023-06-10T13:07:30;8.70;;;8.13;;
4833;SDS011;12895;51.064;7.028;2023-06-10T13:10:16;8.60;;;7.93;;
4833;SDS011;12895;51.064;7.028;2023-06-10T13:13:03;8.63;;;7.93;;
4833;SDS011;12895;51.064;7.028;2023-06-10T13:15:51;8.40;;;7.60;;
4833;SDS011;12895;51.064;7.028;2023-06-10T13:18:37;8.47;;;7.87;;
4833;SDS011;12895;51.064;7.028;2023-06-10T13:21:22;8.43;;;7.63;;
4833;SDS011;12895;51.064;7.028;2023-06-10T13:24:09;8.43;;;7.83;;
4833;SDS011;12895;51.064;7.028;2023-06-10T13:26:54;8.00;;;7.30;;
4833;SDS011;12895;51.064;7.028;2023-06-10T13:29:40;8.63;;;7.90;;
4833;SDS011;12895;51.064;7.028;2023-06-10T13:32:26;7.67;;;7.07;;
4833;SDS011;12895;51.064;7.028;2023-06-10T13:35:11;8.33;;;7.53;;
4833;SDS011;12895;51.064;7.028;2023-06-10T13:37:56;7.50;;;7.00;;
4833;SDS011;12895;51.064;7.028;2023-06-10T13:40:42;7.43;;;6.90;;
4833;SDS011;12895;51.064;7.028;2023-06-10T13:43:27;6.97;;;6.57;;
4833;SDS011;12895;51.064;7.028;2023-06-10T13:46:14;7.27;;;6.70;;
4833;SDS011;12895;51.064;7.028;2023-06-10T13:48:59;7.70;;;7.20;;
4833;SDS011;12895;51.064;7.028;2023-06-10T13:51:45;7.90;;;7.20;;
4833;SDS011;12895;51.064;7.028;2023-06-10T13:54:30;7.40;;;6.90;;
4833;SDS011;12895;51.064;7.028;2023-06-10T13:57:17;6.63;;;6.13;;
4833;SDS011;12895;51.064;7.028;2023-06-10T14:00:02;7.90;;;7.20;;
4833;SDS011;12895;51.064;7.028;2023-06-10T14:02:48;7.93;;;7.33;;
4833;SDS011;12895;51.064;7.028;2023-06-10T14:05:33;7.10;;;6.70;;
4833;SDS011;12895;51.064;7.028;2023-06-10T14:08:19;6.80;;;6.43;;
4833;SDS011;12895;51.064;7.028;2023-06-10T14:11:05;9.47;;;7.07;;
4833;SDS011;12895;51.064;7.028;2023-06-10T14:13:52;8.50;;;6.80;;
4833;SDS011;12895;51.064;7.028;2023-06-10T14:16:40;6.90;;;6.30;;
4833;SDS011;12895;51.064;7.028;2023-06-10T14:19:25;7.93;;;6.30;;
4833;SDS011;12895;51.064;7.028;2023-06-10T14:22:10;6.50;;;6.10;;
4833;SDS011;12895;51.064;7.028;2023-06-10T14:24:56;6.40;;;6.00;;
4833;SDS011;12895;51.064;7.028;2023-06-10T14:27:41;7.30;;;6.70;;
4833;SDS011;12895;51.064;7.028;2023-06-10T14:30:28;5.70;;;5.40;;
4833;SDS011;12895;51.064;7.028;2023-06-10T14:33:13;6.70;;;6.10;;
4833;SDS011;12895;51.064;7.028;2023-06-10T14:35:59;5.87;;;5.37;;
4833;SDS011;12895;51.064;7.028;2023-06-10T14:38:44;5.70;;;5.40;;
4833;SDS011;12895;51.064;7.028;2023-06-10T14:41:31;5.73;;;5.37;;
4833;SDS011;12895;51.064;7.028;2023-06-10T14:44:16;6.00;;;5.70;;
4833;SDS011;12895;51.064;7.028;2023-06-10T14:47:03;5.43;;;5.20;;
4833;SDS011;12895;51.064;7.028;2023-06-10T14:49:48;7.20;;;6.80;;
4833;SDS011;12895;51.064;7.028;2023-06-10T14:52:33;6.10;;;5.70;;
4833;SDS011;12895;51.064;7.028;2023-06-10T14:55:19;5.90;;;5.50;;
4833;SDS011;12895;51.064;7.028;2023-06-10T14:58:06;5.67;;;5.37;;
4833;SDS011;12895;51.064;7.028;2023-06-10T15:00:52;6.00;;;5.63;;
4833;SDS011;12895;51.064;7.028;2023-06-10T15:03:38;6.40;;;5.80;;
4833;SDS011;12895;51.064;7.028;2023-06-10T15:06:24;5.73;;;5.33;;
4833;SDS011;12895;51.064;7.028;2023-06-10T15:09:09;6.73;;;6.40;;
4833;SDS011;12895;51.064;7.028;2023-06-10T15:11:55;7.20;;;6.70;;
4833;SDS011;12895;51.064;7.028;2023-06-10T15:14:41;6.10;;;5.70;;
4833;SDS011;12895;51.064;7.028;2023-06-10T15:17:26;7.40;;;6.70;;
4833;SDS011;12895;51.064;7.028;2023-06-10T15:20:13;13.80;;;7.70;;
4833;SDS011;12895;51.064;7.028;2023-06-10T15:22:58;6.80;;;6.50;;
4833;SDS011;12895;51.064;7.028;2023-06-10T15:25:44;7.33;;;6.73;;
4833;SDS011;12895;51.064;7.028;2023-06-10T15:28:30;8.33;;;7.50;;
4833;SDS011;12895;51.064;7.028;2023-06-10T15:31:15;6.73;;;6.17;;
4833;SDS011;12895;51.064;7.028;2023-06-10T15:34:01;58.10;;;8.17;;
4833;SDS011;12895;51.064;7.028;2023-06-10T15:36:52;7.00;;;6.60;;
4833;SDS011;12895;51.064;7.028;2023-06-10T15:39:37;7.37;;;7.07;;
4833;SDS011;12895;51.064;7.028;2023-06-10T15:42:22;6.77;;;6.47;;
4833;SDS011;12895;51.064;7.028;2023-06-10T15:45:08;6.60;;;6.30;;
4833;SDS011;12895;51.064;7.028;2023-06-10T15:47:54;6.70;;;6.40;;
4833;SDS011;12895;51.064;7.028;2023-06-10T15:50:39;7.57;;;7.10;;
4833;SDS011;12895;51.064;7.028;2023-06-10T15:53:26;7.17;;;6.73;;
4833;SDS011;12895;51.064;7.028;2023-06-10T15:56:11;7.50;;;7.00;;
4833;SDS011;12895;51.064;7.028;2023-06-10T15:58:56;7.20;;;6.80;;
4833;SDS011;12895;51.064;7.028;2023-06-10T16:01:42;6.73;;;6.47;;
4833;SDS011;12895;51.064;7.028;2023-06-10T16:04:27;6.33;;;5.90;;
4833;SDS011;12895;51.064;7.028;2023-06-10T16:07:13;7.00;;;6.60;;
4833;SDS011;12895;51.064;7.028;2023-06-10T16:09:59;6.67;;;6.07;;
4833;SDS011;12895;51.064;7.028;2023-06-10T16:12:45;6.10;;;5.80;;
4833;SDS011;12895;51.064;7.028;2023-06-10T16:15:32;6.93;;;6.37;;
4833;SDS011;12895;51.064;7.028;2023-06-10T16:18:17;7.43;;;6.93;;
4833;SDS011;12895;51.064;7.028;2023-06-10T16:21:02;6.23;;;5.83;;
4833;SDS011;12895;51.064;7.028;2023-06-10T16:23:49;7.57;;;7.07;;
4833;SDS011;12895;51.064;7.028;2023-06-10T16:26:35;8.07;;;7.27;;
4833;SDS011;12895;51.064;7.028;2023-06-10T16:29:21;6.90;;;6.50;;
4833;SDS011;12895;51.064;7.028;2023-06-10T16:32:06;7.40;;;6.07;;
4833;SDS011;12895;51.064;7.028;2023-06-10T16:34:52;9.30;;;8.50;;
4833;SDS011;12895;51.064;7.028;2023-06-10T16:37:37;8.13;;;7.53;;
4833;SDS011;12895;51.064;7.028;2023-06-10T16:40:23;6.93;;;6.53;;
4833;SDS011;12895;51.064;7.028;2023-06-10T16:43:11;7.10;;;6.70;;
4833;SDS011;12895;51.064;7.028;2023-06-10T16:45:56;7.00;;;6.70;;
4833;SDS011;12895;51.064;7.028;2023-06-10T16:48:42;7.57;;;7.17;;
4833;SDS011;12895;51.064;7.028;2023-06-10T16:51:28;7.37;;;6.97;;